createdAt,value
2019-02-08T00:00:11.456Z,56.46
2019-02-08T00:02:37.718Z,56.54
2019-02-08T00:05:05.443Z,56.67
2019-02-08T00:07:32.018Z,56.00
2019-02-08T00:09:58.174Z,55.76
2019-02-08T00:12:24.454Z,55.93
2019-02-08T00:14:50.775Z,56.00
2019-02-08T00:17:17.043Z,56.06
2019-02-08T00:19:43.218Z,55.63
2019-02-08T00:22:10.220Z,55.65
2019-02-08T00:24:36.411Z,55.80
2019-02-08T00:27:03.579Z,56.69
2019-02-08T00:29:29.790Z,57.48
2019-02-08T00:31:56.069Z,57.38
2019-02-08T00:34:22.221Z,57.75
2019-02-08T00:36:48.429Z,57.76
2019-02-08T00:39:14.695Z,57.42
2019-02-08T00:41:41.302Z,56.77
2019-02-08T00:44:08.794Z,56.60
2019-02-08T00:46:34.947Z,56.63
2019-02-08T00:49:01.211Z,57.56
2019-02-08T00:51:27.511Z,57.53
2019-02-08T00:53:53.789Z,57.27
2019-02-08T00:56:20.057Z,56.67
2019-02-08T00:58:46.268Z,56.76
2019-02-08T01:01:12.427Z,57.07
2019-02-08T01:03:38.698Z,56.94
2019-02-08T01:06:05.504Z,56.32
2019-02-08T01:08:31.658Z,56.29
2019-02-08T01:10:57.918Z,56.30
2019-02-08T01:13:24.219Z,56.24
2019-02-08T01:15:50.479Z,56.04
2019-02-08T01:18:16.653Z,56.09
2019-02-08T01:20:42.948Z,55.91
2019-02-08T01:23:09.122Z,55.17
2019-02-08T01:25:35.466Z,55.26
2019-02-08T01:28:01.668Z,55.38
2019-02-08T01:30:30.668Z,55.40
2019-02-08T01:32:56.926Z,55.37
2019-02-08T01:35:23.515Z,55.68
2019-02-08T01:37:49.888Z,55.44
2019-02-08T01:40:22.948Z,56.05
2019-02-08T01:42:49.150Z,56.90
2019-02-08T01:45:21.314Z,56.66
2019-02-08T01:47:47.478Z,56.66
2019-02-08T01:50:16.792Z,57.10
2019-02-08T01:52:42.940Z,57.11
2019-02-08T01:55:09.403Z,57.57
2019-02-08T01:57:37.852Z,57.71
2019-02-08T02:00:28.567Z,58.08
2019-02-08T02:02:55.316Z,57.66
2019-02-08T02:05:22.186Z,56.93
2019-02-08T02:07:48.450Z,57.13
2019-02-08T02:10:34.120Z,56.79
2019-02-08T02:13:00.602Z,57.06
2019-02-08T02:15:27.165Z,56.73
2019-02-08T02:17:53.378Z,57.84
2019-02-08T02:20:28.169Z,57.23
2019-02-08T02:22:54.322Z,57.72
2019-02-08T02:25:21.038Z,57.96
2019-02-08T02:27:47.322Z,58.22
2019-02-08T02:30:23.094Z,58.11
2019-02-08T02:32:49.353Z,58.13
2019-02-08T02:35:15.625Z,57.78
2019-02-08T02:37:41.908Z,57.61
2019-02-08T02:40:16.463Z,57.94
2019-02-08T02:42:42.632Z,56.96
2019-02-08T02:45:50.439Z,56.15
2019-02-08T02:48:16.613Z,55.98
2019-02-08T02:50:42.790Z,55.87
2019-02-08T02:53:09.501Z,55.85
2019-02-08T02:55:35.755Z,56.07
2019-02-08T02:58:02.232Z,56.01
2019-02-08T03:00:34.954Z,56.26
2019-02-08T03:03:01.239Z,56.31
2019-02-08T03:05:27.500Z,56.47
2019-02-08T03:07:53.700Z,56.32
2019-02-08T03:10:21.273Z,56.45
2019-02-08T03:12:47.520Z,56.32
2019-02-08T03:15:16.948Z,55.89
2019-02-08T03:17:43.205Z,56.06
2019-02-08T03:20:12.510Z,56.28
2019-02-08T03:22:38.683Z,56.29
2019-02-08T03:25:08.258Z,56.58
2019-02-08T03:27:34.432Z,56.32
2019-02-08T03:30:00.771Z,56.59
2019-02-08T03:32:27.041Z,56.07
2019-02-08T03:34:53.210Z,56.04
2019-02-08T03:37:19.425Z,55.85
2019-02-08T03:39:45.692Z,56.00
2019-02-08T03:42:11.857Z,55.91
2019-02-08T03:44:38.186Z,56.12
2019-02-08T03:47:04.531Z,56.38
2019-02-08T03:49:30.694Z,56.35
2019-02-08T03:51:56.892Z,56.03
2019-02-08T03:54:23.050Z,56.02
2019-02-08T03:56:49.325Z,56.19
2019-02-08T03:59:15.521Z,55.91
2019-02-08T04:01:41.790Z,55.92
2019-02-08T04:04:13.229Z,55.82
2019-02-08T04:06:39.736Z,56.58
2019-02-08T04:09:07.319Z,57.28
2019-02-08T04:11:33.478Z,56.93
2019-02-08T04:13:59.682Z,56.49
2019-02-08T04:16:25.951Z,56.35
2019-02-08T04:18:52.119Z,56.34
2019-02-08T04:21:18.314Z,56.21
2019-02-08T04:23:44.485Z,56.28
2019-02-08T04:26:10.738Z,56.15
2019-02-08T04:28:37.045Z,56.36
2019-02-08T04:31:03.359Z,56.15
2019-02-08T04:33:29.524Z,56.50
2019-02-08T04:35:55.717Z,56.43
2019-02-08T04:38:21.883Z,56.63
2019-02-08T04:40:48.169Z,56.48
2019-02-08T04:43:14.487Z,56.34
2019-02-08T04:45:40.654Z,56.32
2019-02-08T04:48:06.814Z,56.28
2019-02-08T04:50:33.116Z,56.23
2019-02-08T04:52:59.295Z,56.27
2019-02-08T04:55:26.056Z,56.26
2019-02-08T04:57:52.360Z,56.16
2019-02-08T05:00:21.727Z,56.14
2019-02-08T05:02:47.895Z,56.27
2019-02-08T05:05:14.082Z,57.44
2019-02-08T05:07:40.351Z,56.43
2019-02-08T05:10:10.225Z,56.45
2019-02-08T05:12:36.530Z,56.30
2019-02-08T05:15:05.689Z,56.20
2019-02-08T05:17:31.847Z,56.09
2019-02-08T05:19:58.144Z,56.21
2019-02-08T05:22:24.295Z,56.29
2019-02-08T05:24:50.460Z,56.54
2019-02-08T05:27:16.779Z,57.40
2019-02-08T05:29:43.063Z,57.96
2019-02-08T05:32:09.436Z,58.48
2019-02-08T05:34:35.629Z,57.69
2019-02-08T05:37:01.791Z,57.63
2019-02-08T05:39:28.054Z,58.56
2019-02-08T05:41:54.358Z,58.29
2019-02-08T05:44:20.622Z,57.88
2019-02-08T05:46:46.894Z,57.47
2019-02-08T05:49:13.088Z,57.62
2019-02-08T05:51:39.350Z,58.24
2019-02-08T05:54:05.832Z,58.09
2019-02-08T05:56:32.038Z,58.37
2019-02-08T05:58:58.319Z,58.03
2019-02-08T06:01:24.590Z,58.28
2019-02-08T06:03:50.879Z,58.52
2019-02-08T06:06:17.162Z,57.86
2019-02-08T06:08:43.633Z,57.23
2019-02-08T06:11:09.834Z,56.99
2019-02-08T06:13:36.228Z,56.79
2019-02-08T06:16:03.020Z,56.52
2019-02-08T06:18:29.215Z,56.17
2019-02-08T06:20:55.476Z,55.99
2019-02-08T06:23:21.658Z,56.39
2019-02-08T06:25:48.063Z,57.01
2019-02-08T06:28:14.338Z,56.47
2019-02-08T06:30:40.609Z,56.03
2019-02-08T06:33:06.836Z,55.73
2019-02-08T06:35:33.011Z,54.85
2019-02-08T06:37:59.320Z,54.31
2019-02-08T06:40:28.914Z,53.49
2019-02-08T06:42:55.179Z,52.66
2019-02-08T06:45:24.044Z,51.97
2019-02-08T06:47:50.446Z,51.79
2019-02-08T06:50:19.422Z,51.19
2019-02-08T06:52:45.574Z,50.94
2019-02-08T06:55:12.264Z,49.77
2019-02-08T06:57:40.331Z,48.93
2019-02-08T07:00:14.117Z,48.24
2019-02-08T07:02:42.218Z,48.30
2019-02-08T07:05:19.508Z,48.18
2019-02-08T07:07:47.607Z,47.69
2019-02-08T07:10:18.585Z,46.94
2019-02-08T07:12:49.462Z,48.04
2019-02-08T07:15:20.579Z,47.58
2019-02-08T07:17:51.705Z,47.32
2019-02-08T07:20:19.908Z,48.31
2019-02-08T07:22:53.565Z,50.02
2019-02-08T07:25:36.662Z,48.18
2019-02-08T07:28:19.738Z,47.73
2019-02-08T07:30:50.795Z,48.16
2019-02-08T07:33:33.700Z,51.04
2019-02-08T07:36:05.058Z,49.74
2019-02-08T07:38:36.466Z,48.82
2019-02-08T07:41:06.266Z,48.81
2019-02-08T07:43:46.990Z,50.12
2019-02-08T07:46:21.896Z,50.85
2019-02-08T07:48:50.474Z,48.37
2019-02-08T07:51:24.796Z,47.01
2019-02-08T07:54:09.219Z,47.24
2019-02-08T07:56:39.881Z,50.72
2019-02-08T07:59:10.454Z,49.12
2019-02-08T08:01:39.034Z,47.68
2019-02-08T08:04:09.224Z,45.98
2019-02-08T08:06:43.856Z,45.09
2019-02-08T08:09:14.972Z,44.69
2019-02-08T08:11:46.140Z,43.75
2019-02-08T08:14:21.490Z,43.22
2019-02-08T08:17:06.383Z,42.40
2019-02-08T08:19:44.535Z,42.09
2019-02-08T08:22:28.461Z,42.97
2019-02-08T08:25:02.264Z,43.10
2019-02-08T08:27:34.144Z,41.47
2019-02-08T08:30:05.848Z,41.48
2019-02-08T08:32:36.230Z,41.63
2019-02-08T08:35:24.168Z,40.95
2019-02-08T08:37:53.961Z,41.67
2019-02-08T08:40:44.931Z,41.18
2019-02-08T08:43:33.018Z,40.67
2019-02-08T08:46:12.098Z,43.74
2019-02-08T08:48:58.571Z,45.46
2019-02-08T08:51:40.775Z,44.39
2019-02-08T08:54:26.231Z,42.93
2019-02-08T08:57:22.279Z,41.35
2019-02-08T09:00:08.795Z,42.22
2019-02-08T09:02:49.280Z,41.83
2019-02-08T09:05:34.524Z,43.54
2019-02-08T09:08:33.425Z,42.05
2019-02-08T09:11:30.522Z,42.44
2019-02-08T09:14:18.520Z,42.09
2019-02-08T09:17:08.043Z,40.25
2019-02-08T09:19:44.036Z,38.09
2019-02-08T09:22:35.062Z,37.13
2019-02-08T09:25:29.313Z,36.83
2019-02-08T09:28:08.112Z,36.69
2019-02-08T09:31:09.793Z,37.42
2019-02-08T09:34:00.835Z,39.34
2019-02-08T09:36:47.814Z,37.12
2019-02-08T09:39:26.213Z,35.09
2019-02-08T09:42:18.614Z,33.96
2019-02-08T09:44:57.573Z,34.50
2019-02-08T09:47:45.503Z,37.69
2019-02-08T09:50:44.262Z,43.59
2019-02-08T09:53:30.540Z,45.16
2019-02-08T09:56:27.668Z,43.92
2019-02-08T09:59:13.972Z,45.84
2019-02-08T10:02:17.468Z,47.23
2019-02-08T10:04:50.033Z,51.59
2019-02-08T10:07:19.787Z,51.03
2019-02-08T10:10:10.762Z,51.25
2019-02-08T10:12:55.622Z,50.13
2019-02-08T10:15:59.035Z,49.82
2019-02-08T10:18:37.956Z,50.69
2019-02-08T10:21:27.813Z,49.48
2019-02-08T10:24:15.918Z,49.61
2019-02-08T10:27:00.638Z,48.76
2019-02-08T10:30:02.450Z,46.00
2019-02-08T10:32:52.075Z,45.73
2019-02-08T10:35:36.615Z,43.10
2019-02-08T10:38:29.012Z,44.94
2019-02-08T10:41:07.750Z,42.71
2019-02-08T10:43:54.237Z,42.56
2019-02-08T10:46:39.232Z,43.29
2019-02-08T10:49:17.962Z,42.43
2019-02-08T10:51:59.771Z,42.41
2019-02-08T10:54:44.871Z,38.46
2019-02-08T10:57:27.330Z,40.37
2019-02-08T11:00:00.044Z,40.23
2019-02-08T11:03:03.639Z,39.65
2019-02-08T11:05:39.349Z,38.18
2019-02-08T11:08:32.209Z,40.42
2019-02-08T11:11:23.011Z,38.86
2019-02-08T11:14:12.903Z,34.99
2019-02-08T11:17:19.222Z,37.00
2019-02-08T11:19:50.891Z,35.95
2019-02-08T11:22:17.152Z,35.19
2019-02-08T11:24:43.498Z,35.17
2019-02-08T11:27:10.048Z,35.42
2019-02-08T11:29:38.366Z,34.92
2019-02-08T11:32:08.258Z,32.56
2019-02-08T11:34:34.425Z,33.51
2019-02-08T11:37:07.211Z,33.16
2019-02-08T11:39:28.948Z,35.66
2019-02-08T11:41:55.154Z,39.49
2019-02-08T11:44:21.642Z,36.40
2019-02-08T11:46:47.940Z,33.35
2019-02-08T11:49:14.430Z,33.36
2019-02-08T11:51:41.120Z,31.84
2019-02-08T11:54:07.416Z,33.17
2019-02-08T11:56:34.023Z,38.48
2019-02-08T11:59:00.494Z,38.60
2019-02-08T12:01:28.601Z,35.82
2019-02-08T12:03:54.776Z,36.08
2019-02-08T12:06:21.037Z,35.89
2019-02-08T12:08:47.351Z,34.33
2019-02-08T12:11:13.492Z,36.18
2019-02-08T12:13:39.670Z,35.79
2019-02-08T12:16:05.976Z,36.05
2019-02-08T12:18:32.226Z,36.12
2019-02-08T12:20:58.510Z,34.94
2019-02-08T12:23:24.806Z,33.76
2019-02-08T12:25:51.073Z,32.47
2019-02-08T12:28:17.534Z,31.94
2019-02-08T12:30:44.722Z,30.40
2019-02-08T12:33:11.375Z,29.30
2019-02-08T12:35:37.640Z,29.48
2019-02-08T12:38:04.051Z,29.57
2019-02-08T12:40:30.366Z,30.62
2019-02-08T12:42:56.652Z,30.82
2019-02-08T12:45:22.854Z,33.01
2019-02-08T12:47:49.008Z,34.17
2019-02-08T12:50:19.892Z,35.85
2019-02-08T12:52:46.098Z,35.96
2019-02-08T12:55:14.669Z,34.12
2019-02-08T12:57:40.830Z,33.63
2019-02-08T13:00:16.924Z,32.54
2019-02-08T13:02:43.190Z,33.92
2019-02-08T13:05:11.150Z,35.20
2019-02-08T13:07:37.359Z,36.12
2019-02-08T13:10:09.960Z,37.44
2019-02-08T13:12:36.234Z,36.94
2019-02-08T13:15:05.916Z,35.40
2019-02-08T13:17:32.089Z,33.53
2019-02-08T13:19:58.350Z,33.79
2019-02-08T13:22:24.557Z,33.53
2019-02-08T13:24:50.730Z,34.18
2019-02-08T13:27:16.998Z,35.60
2019-02-08T13:29:43.204Z,36.97
2019-02-08T13:32:09.390Z,37.82
2019-02-08T13:34:35.540Z,38.73
2019-02-08T13:37:02.211Z,37.75
2019-02-08T13:39:28.473Z,37.02
2019-02-08T13:41:54.699Z,37.93
2019-02-08T13:44:20.991Z,38.45
2019-02-08T13:46:47.263Z,39.10
2019-02-08T13:49:13.404Z,38.62
2019-02-08T13:51:39.597Z,39.87
2019-02-08T13:54:05.774Z,42.84
2019-02-08T13:56:32.063Z,42.16
2019-02-08T13:58:58.352Z,42.45
2019-02-08T14:01:24.611Z,41.87
2019-02-08T14:03:50.782Z,41.25
2019-02-08T14:06:16.987Z,41.48
2019-02-08T14:08:43.161Z,40.93
2019-02-08T14:11:09.314Z,40.69
2019-02-08T14:13:40.497Z,41.08
2019-02-08T14:16:03.946Z,41.59
2019-02-08T14:18:30.099Z,41.68
2019-02-08T14:20:56.290Z,40.69
2019-02-08T14:23:24.275Z,41.84
2019-02-08T14:25:50.596Z,40.18
2019-02-08T14:28:16.746Z,40.09
2019-02-08T14:30:43.321Z,40.31
2019-02-08T14:33:12.230Z,40.66
2019-02-08T14:35:38.626Z,40.35
2019-02-08T14:38:08.495Z,39.73
2019-02-08T14:40:35.125Z,42.66
2019-02-08T14:43:01.331Z,42.81
2019-02-08T14:45:27.800Z,42.62
2019-02-08T14:47:54.103Z,44.32
2019-02-08T14:50:23.994Z,40.60
2019-02-08T14:52:50.562Z,41.34
2019-02-08T14:55:16.747Z,41.53
2019-02-08T14:57:44.132Z,42.08
2019-02-08T15:00:19.453Z,41.08
2019-02-08T15:02:45.702Z,41.92
2019-02-08T15:05:14.216Z,42.51
2019-02-08T15:07:40.480Z,44.02
2019-02-08T15:10:25.624Z,43.51
2019-02-08T15:12:51.901Z,44.89
2019-02-08T15:15:18.458Z,43.80
2019-02-08T15:17:44.640Z,43.54
2019-02-08T15:20:14.414Z,44.59
2019-02-08T15:22:40.568Z,45.11
2019-02-08T15:25:08.281Z,44.86
2019-02-08T15:27:34.747Z,44.44
2019-02-08T15:30:00.908Z,44.47
2019-02-08T15:32:27.107Z,44.89
2019-02-08T15:34:53.282Z,45.20
2019-02-08T15:37:19.640Z,45.99
2019-02-08T15:39:45.837Z,44.66
2019-02-08T15:42:12.000Z,44.66
2019-02-08T15:44:38.312Z,45.04
2019-02-08T15:47:04.722Z,45.04
2019-02-08T15:49:30.881Z,45.45
2019-02-08T15:51:57.151Z,45.53
2019-02-08T15:54:23.446Z,45.53
2019-02-08T15:56:49.605Z,44.81
2019-02-08T15:59:15.866Z,44.70
2019-02-08T16:01:42.301Z,43.96
2019-02-08T16:04:08.551Z,44.58
2019-02-08T16:06:34.827Z,44.14
2019-02-08T16:09:01.029Z,44.67
2019-02-08T16:11:27.180Z,43.80
2019-02-08T16:13:53.439Z,45.42
2019-02-08T16:16:19.645Z,45.16
2019-02-08T16:18:45.911Z,44.64
2019-02-08T16:21:12.370Z,44.53
2019-02-08T16:23:38.560Z,44.56
2019-02-08T16:26:04.825Z,43.76
2019-02-08T16:28:31.090Z,44.55
2019-02-08T16:30:57.383Z,43.93
2019-02-08T16:33:23.669Z,45.22
2019-02-08T16:35:57.805Z,44.77
2019-02-08T16:38:23.984Z,44.88
2019-02-08T16:40:50.263Z,45.33
2019-02-08T16:43:16.424Z,44.53
2019-02-08T16:45:42.692Z,44.22
2019-02-08T16:48:11.567Z,45.15
2019-02-08T16:50:38.141Z,44.89
2019-02-08T16:53:06.299Z,45.21
2019-02-08T16:55:34.357Z,46.09
2019-02-08T16:58:00.522Z,46.35
2019-02-08T17:00:29.816Z,47.08
2019-02-08T17:02:58.685Z,46.78
2019-02-08T17:05:26.353Z,46.64
2019-02-08T17:07:52.548Z,46.61
2019-02-08T17:10:18.819Z,45.30
2019-02-08T17:12:45.072Z,46.11
2019-02-08T17:15:14.885Z,46.93
2019-02-08T17:17:41.191Z,47.26
2019-02-08T17:20:16.844Z,47.24
2019-02-08T17:22:43.024Z,47.19
2019-02-08T17:25:09.393Z,46.84
2019-02-08T17:27:35.649Z,46.70
2019-02-08T17:30:03.633Z,46.35
2019-02-08T17:32:29.805Z,46.39
2019-02-08T17:34:55.973Z,46.65
2019-02-08T17:37:22.277Z,46.89
2019-02-08T17:39:48.541Z,47.02
2019-02-08T17:42:14.700Z,46.87
2019-02-08T17:44:40.999Z,46.99
2019-02-08T17:47:07.342Z,46.54
2019-02-08T17:49:33.478Z,46.53
2019-02-08T17:51:59.779Z,46.43
2019-02-08T17:54:26.052Z,46.73
2019-02-08T17:56:52.213Z,46.49
2019-02-08T17:59:18.906Z,47.86
2019-02-08T18:01:45.171Z,46.13
2019-02-08T18:04:11.320Z,46.08
2019-02-08T18:06:37.648Z,46.41
2019-02-08T18:09:06.012Z,46.24
2019-02-08T18:11:32.277Z,46.21
2019-02-08T18:13:58.469Z,46.00
2019-02-08T18:16:24.633Z,46.13
2019-02-08T18:18:50.802Z,45.75
2019-02-08T18:21:16.993Z,46.18
2019-02-08T18:23:43.265Z,45.41
2019-02-08T18:26:09.525Z,46.12
2019-02-08T18:28:35.831Z,45.65
2019-02-08T18:31:02.285Z,45.37
2019-02-08T18:33:28.446Z,45.31
2019-02-08T18:35:54.644Z,45.48
2019-02-08T18:38:20.802Z,47.49
2019-02-08T18:40:47.069Z,46.01
2019-02-08T18:43:13.427Z,46.30
2019-02-08T18:45:39.592Z,45.75
2019-02-08T18:48:06.310Z,45.50
2019-02-08T18:50:38.841Z,45.21
2019-02-08T18:53:05.930Z,46.08
2019-02-08T18:55:32.180Z,46.38
2019-02-08T18:57:58.383Z,45.98
2019-02-08T19:00:27.777Z,46.14
2019-02-08T19:02:53.957Z,46.70
2019-02-08T19:05:20.168Z,46.85
2019-02-08T19:07:46.458Z,46.84
2019-02-08T19:10:15.358Z,47.33
2019-02-08T19:12:41.568Z,47.51
2019-02-08T19:15:11.058Z,47.76
2019-02-08T19:17:37.222Z,46.92
2019-02-08T19:20:06.729Z,46.39
2019-02-08T19:22:32.893Z,47.87
2019-02-08T19:24:59.061Z,46.46
2019-02-08T19:27:25.256Z,47.03
2019-02-08T19:29:51.414Z,46.47
2019-02-08T19:32:17.568Z,48.22
2019-02-08T19:34:43.772Z,46.51
2019-02-08T19:37:10.040Z,46.56
2019-02-08T19:39:36.299Z,48.32
2019-02-08T19:42:02.924Z,49.07
2019-02-08T19:44:29.099Z,48.00
2019-02-08T19:46:55.387Z,47.45
2019-02-08T19:49:24.471Z,46.75
2019-02-08T19:51:50.765Z,46.43
2019-02-08T19:54:17.034Z,49.35
2019-02-08T19:56:43.347Z,47.38
2019-02-08T19:59:09.617Z,46.68
2019-02-08T20:01:35.890Z,48.41
2019-02-08T20:04:03.884Z,47.27
2019-02-08T20:06:30.165Z,46.46
2019-02-08T20:08:56.433Z,47.08
2019-02-08T20:11:22.770Z,46.66
2019-02-08T20:13:49.045Z,46.07
2019-02-08T20:16:15.208Z,46.43
2019-02-08T20:18:41.405Z,46.73
2019-02-08T20:21:07.712Z,47.05
2019-02-08T20:23:33.855Z,47.99
2019-02-08T20:26:02.002Z,47.65
2019-02-08T20:28:28.631Z,47.37
2019-02-08T20:30:54.896Z,47.29
2019-02-08T20:33:22.891Z,49.40
2019-02-08T20:35:51.481Z,48.29
2019-02-08T20:38:17.654Z,48.37
2019-02-08T20:40:48.600Z,49.90
2019-02-08T20:43:14.869Z,49.27
2019-02-08T20:45:41.512Z,47.95
2019-02-08T20:48:16.620Z,47.63
2019-02-08T20:50:43.036Z,48.72
2019-02-08T20:53:09.223Z,49.71
2019-02-08T20:55:36.189Z,49.31
2019-02-08T20:58:05.115Z,48.46
2019-02-08T21:00:35.648Z,48.00
2019-02-08T21:03:05.875Z,49.70
2019-02-08T21:05:32.402Z,48.55
2019-02-08T21:07:59.359Z,48.93
2019-02-08T21:10:26.454Z,48.48
2019-02-08T21:12:55.103Z,48.64
2019-02-08T21:15:22.507Z,48.79
2019-02-08T21:17:48.697Z,48.71
2019-02-08T21:20:16.371Z,49.70
2019-02-08T21:22:42.536Z,49.22
2019-02-08T21:25:18.336Z,48.80
2019-02-08T21:27:44.612Z,48.15
2019-02-08T21:30:14.081Z,48.15
2019-02-08T21:32:40.372Z,49.00
2019-02-08T21:35:09.237Z,47.57
2019-02-08T21:37:35.866Z,46.87
2019-02-08T21:40:04.468Z,47.56
2019-02-08T21:42:30.726Z,46.85
2019-02-08T21:44:56.888Z,46.46
2019-02-08T21:47:23.196Z,46.70
2019-02-08T21:49:49.357Z,46.54
2019-02-08T21:52:15.568Z,48.22
2019-02-08T21:54:41.869Z,46.50
2019-02-08T21:57:08.140Z,46.01
2019-02-08T21:59:34.299Z,45.82
2019-02-08T22:02:00.617Z,48.48
2019-02-08T22:04:26.784Z,47.54
2019-02-08T22:06:52.953Z,47.23
2019-02-08T22:09:19.262Z,47.60
2019-02-08T22:11:46.476Z,47.72
2019-02-08T22:14:12.632Z,47.22
2019-02-08T22:16:38.832Z,47.16
2019-02-08T22:19:05.203Z,47.17
2019-02-08T22:21:31.711Z,47.51
2019-02-08T22:23:57.926Z,49.29
2019-02-08T22:26:24.222Z,48.59
2019-02-08T22:28:50.438Z,49.78
2019-02-08T22:31:16.606Z,51.01
2019-02-08T22:33:42.859Z,50.51
2019-02-08T22:36:09.016Z,49.72
2019-02-08T22:38:35.198Z,51.25
2019-02-08T22:41:01.463Z,49.80
2019-02-08T22:43:27.644Z,49.26
2019-02-08T22:45:53.952Z,48.53
2019-02-08T22:48:20.118Z,47.70
2019-02-08T22:50:46.882Z,47.61
2019-02-08T22:53:13.227Z,47.23
2019-02-08T22:55:39.395Z,47.33
2019-02-08T22:58:07.361Z,48.22
2019-02-08T23:00:40.310Z,47.87
2019-02-08T23:03:08.275Z,49.58
2019-02-08T23:05:34.433Z,47.72
2019-02-08T23:08:00.628Z,47.98
2019-02-08T23:10:27.094Z,48.75
2019-02-08T23:12:53.262Z,49.07
2019-02-08T23:15:19.457Z,49.96
2019-02-08T23:17:45.624Z,50.41
2019-02-08T23:20:11.992Z,50.33
2019-02-08T23:22:38.192Z,51.18
2019-02-08T23:25:05.259Z,52.37
2019-02-08T23:27:31.528Z,51.47
2019-02-08T23:29:57.829Z,52.07
2019-02-08T23:32:23.988Z,51.79
2019-02-08T23:34:50.266Z,52.52
2019-02-08T23:37:16.571Z,53.29
2019-02-08T23:39:42.734Z,53.22
2019-02-08T23:42:09.007Z,53.11
2019-02-08T23:44:35.317Z,52.30
2019-02-08T23:47:01.493Z,52.49
2019-02-08T23:49:27.765Z,52.56
2019-02-08T23:51:54.053Z,52.78
2019-02-08T23:54:20.431Z,53.05
2019-02-08T23:56:46.703Z,52.62
2019-02-08T23:59:12.998Z,52.38
